Time;durP1;ratioP1;P1;durP2;ratioP2;P2;SDS_P1;SDS_P2;PMS_P1;PMS_P2;Temp;Humidity;BMP_temperature;BMP_pressure;BME280_temperature;BME280_humidity;BME280_pressure;Samples;Min_cycle;Max_cycle;Signal;HPM_P1;HPM_P2
2023/07/20 00:01:16;;;;;;;14.30;11.00;;;;;;;;;;5044669;28;20032;-69
2023/07/20 00:03:42;;;;;;;12.45;10.95;;;;;;;;;;5045752;28;20036;-69
2023/07/20 00:06:08;;;;;;;13.88;10.88;;;;;;;;;;5046308;28;20460;-69
2023/07/20 00:08:35;;;;;;;15.45;12.20;;;;;;;;;;5062533;28;20064;-70
2023/07/20 00:11:01;;;;;;;15.65;13.00;;;;;;;;;;5063133;28;20064;-69
2023/07/20 00:13:27;;;;;;;13.85;11.00;;;;;;;;;;5043409;28;20119;-70
2023/07/20 00:15:53;;;;;;;17.27;10.82;;;;;;;;;;5024495;28;20102;-69
2023/07/20 00:18:21;;;;;;;13.80;10.50;;;;;;;;;;5064867;28;20075;-69
2023/07/20 00:20:47;;;;;;;12.73;9.27;;;;;;;;;;5046190;28;20037;-69
2023/07/20 00:23:14;;;;;;;10.70;8.63;;;;;;;;;;5044618;28;20021;-69
2023/07/20 00:25:40;;;;;;;11.13;8.45;;;;;;;;;;5040459;28;20059;-70
2023/07/20 00:28:06;;;;;;;7.85;6.78;;;;;;;;;;5059367;28;20037;-70
2023/07/20 00:30:32;;;;;;;9.13;6.93;;;;;;;;;;5041333;28;20064;-71
2023/07/20 00:32:59;;;;;;;9.10;5.95;;;;;;;;;;5047324;28;20082;-72
2023/07/20 00:35:25;;;;;;;7.85;4.93;;;;;;;;;;5047861;28;20501;-70
2023/07/20 00:37:51;;;;;;;6.82;5.03;;;;;;;;;;5047087;28;20044;-70
2023/07/20 00:40:17;;;;;;;7.40;4.25;;;;;;;;;;5045056;28;20075;-69
2023/07/20 00:42:44;;;;;;;8.27;4.55;;;;;;;;;;5050246;28;20032;-70
2023/07/20 00:45:10;;;;;;;7.50;4.90;;;;;;;;;;5045339;28;20106;-70
2023/07/20 00:47:37;;;;;;;6.05;5.00;;;;;;;;;;5051211;28;20045;-68
2023/07/20 00:50:04;;;;;;;5.80;4.57;;;;;;;;;;5048044;28;20056;-69
2023/07/20 00:52:31;;;;;;;6.30;5.30;;;;;;;;;;5047515;28;20024;-70
2023/07/20 00:54:58;;;;;;;6.70;4.88;;;;;;;;;;5050892;28;20461;-69
2023/07/20 00:57:25;;;;;;;8.80;5.20;;;;;;;;;;5048060;28;21515;-69
2023/07/20 00:59:52;;;;;;;6.97;5.43;;;;;;;;;;5042763;28;20427;-70
2023/07/20 01:02:18;;;;;;;7.97;5.72;;;;;;;;;;5046128;28;20036;-69
2023/07/20 01:04:44;;;;;;;9.98;6.07;;;;;;;;;;5044871;28;20072;-69
2023/07/20 01:07:14;;;;;;;8.07;6.45;;;;;;;;;;5046165;28;20241;-69
2023/07/20 01:09:43;;;;;;;8.55;6.40;;;;;;;;;;5044272;28;20033;-70
2023/07/20 01:12:13;;;;;;;10.80;6.88;;;;;;;;;;5043083;28;20099;-70
2023/07/20 01:14:39;;;;;;;11.97;7.37;;;;;;;;;;5045996;28;20025;-70
2023/07/20 01:17:05;;;;;;;13.75;7.85;;;;;;;;;;5047181;28;20037;-69
2023/07/20 01:19:32;;;;;;;8.65;7.38;;;;;;;;;;5046478;28;20032;-70
2023/07/20 01:22:25;;;;;;;9.98;6.95;;;;;;;;;;5045922;28;20029;-70
2023/07/20 01:25:10;;;;;;;9.23;7.40;;;;;;;;;;5046002;28;20072;-69
2023/07/20 01:27:50;;;;;;;11.70;7.28;;;;;;;;;;5041184;28;20540;-70
2023/07/20 01:30:26;;;;;;;10.75;6.50;;;;;;;;;;5055633;28;20131;-70
2023/07/20 01:32:54;;;;;;;8.68;6.40;;;;;;;;;;5044772;28;20059;-69
2023/07/20 01:35:21;;;;;;;7.95;6.18;;;;;;;;;;5063216;28;20059;-70
2023/07/20 01:37:48;;;;;;;11.07;6.95;;;;;;;;;;5043578;28;20494;-70
2023/07/20 01:40:15;;;;;;;9.57;7.45;;;;;;;;;;5038737;28;20035;-70
2023/07/20 01:42:46;;;;;;;12.50;8.23;;;;;;;;;;5043687;28;20025;-70
2023/07/20 01:45:12;;;;;;;8.95;7.57;;;;;;;;;;5027230;28;20039;-70
2023/07/20 01:47:38;;;;;;;11.32;8.45;;;;;;;;;;5059688;28;20456;-70
2023/07/20 01:50:04;;;;;;;15.70;9.70;;;;;;;;;;5046700;28;20033;-70
2023/07/20 01:52:33;;;;;;;12.48;9.43;;;;;;;;;;5040261;28;20286;-70
2023/07/20 01:54:59;;;;;;;11.52;8.90;;;;;;;;;;5046333;28;20067;-70
2023/07/20 01:57:25;;;;;;;13.95;9.07;;;;;;;;;;5045720;28;20032;-70
2023/07/20 01:59:51;;;;;;;13.20;9.18;;;;;;;;;;5058328;28;20486;-70
2023/07/20 02:02:18;;;;;;;19.73;9.77;;;;;;;;;;5061354;28;20036;-70
2023/07/20 02:04:45;;;;;;;12.82;10.45;;;;;;;;;;5039387;28;20021;-69
2023/07/20 02:07:11;;;;;;;17.40;12.07;;;;;;;;;;5046265;28;20075;-69
2023/07/20 02:09:37;;;;;;;14.02;11.20;;;;;;;;;;5048615;28;20029;-69
2023/07/20 02:12:03;;;;;;;17.33;11.00;;;;;;;;;;5054089;28;20028;-70
2023/07/20 02:14:29;;;;;;;21.20;11.98;;;;;;;;;;5044619;28;20052;-70
2023/07/20 02:16:57;;;;;;;19.10;11.52;;;;;;;;;;5049183;28;20075;-69
2023/07/20 02:19:27;;;;;;;21.10;11.95;;;;;;;;;;5053244;28;20024;-70
2023/07/20 02:21:53;;;;;;;15.00;10.98;;;;;;;;;;5032692;28;20133;-69
2023/07/20 02:24:19;;;;;;;16.23;10.90;;;;;;;;;;5048983;28;20427;-69
2023/07/20 02:26:45;;;;;;;16.52;10.52;;;;;;;;;;5045289;28;20044;-70
2023/07/20 02:29:11;;;;;;;14.45;10.60;;;;;;;;;;5052760;28;20047;-70
2023/07/20 02:31:39;;;;;;;16.73;10.80;;;;;;;;;;5052350;28;20036;-70
2023/07/20 02:34:06;;;;;;;15.85;11.40;;;;;;;;;;5054620;28;20120;-70
2023/07/20 02:36:35;;;;;;;17.38;11.77;;;;;;;;;;5043965;28;20061;-69
2023/07/20 02:39:04;;;;;;;21.52;12.45;;;;;;;;;;5069084;28;20918;-69
2023/07/20 02:41:34;;;;;;;19.25;12.27;;;;;;;;;;5047707;28;20032;-70
2023/07/20 02:44:01;;;;;;;17.90;11.57;;;;;;;;;;5045250;28;20099;-71
2023/07/20 02:46:29;;;;;;;18.13;12.18;;;;;;;;;;5042726;28;20128;-69
2023/07/20 02:48:56;;;;;;;15.73;11.50;;;;;;;;;;5044362;28;20033;-70
2023/07/20 02:51:22;;;;;;;24.27;13.23;;;;;;;;;;5066054;28;20033;-70
2023/07/20 02:53:48;;;;;;;17.73;13.30;;;;;;;;;;5042685;28;20047;-69
2023/07/20 02:56:15;;;;;;;19.25;14.00;;;;;;;;;;5030381;28;20036;-70
2023/07/20 02:58:48;;;;;;;17.60;13.90;;;;;;;;;;5045017;28;20032;-69
2023/07/20 03:01:15;;;;;;;21.67;14.52;;;;;;;;;;5049020;28;20029;-71
2023/07/20 03:03:46;;;;;;;20.90;13.95;;;;;;;;;;5027694;28;20124;-70
2023/07/20 03:06:14;;;;;;;23.25;15.65;;;;;;;;;;5043577;28;20043;-70
2023/07/20 03:08:41;;;;;;;22.30;16.25;;;;;;;;;;5048516;28;20522;-70
2023/07/20 03:11:07;;;;;;;28.58;17.45;;;;;;;;;;5064135;28;20045;-69
2023/07/20 03:13:33;;;;;;;27.70;18.13;;;;;;;;;;5049526;28;20055;-70
2023/07/20 03:16:00;;;;;;;26.33;17.17;;;;;;;;;;5050294;28;20056;-70
2023/07/20 03:18:28;;;;;;;29.13;18.13;;;;;;;;;;5047049;28;20521;-69
2023/07/20 03:20:54;;;;;;;32.10;19.75;;;;;;;;;;5047652;28;20572;-70
2023/07/20 03:23:21;;;;;;;38.60;21.52;;;;;;;;;;5042306;28;20083;-70
2023/07/20 03:25:47;;;;;;;38.65;21.50;;;;;;;;;;5061829;28;20132;-70
2023/07/20 03:28:13;;;;;;;37.70;21.33;;;;;;;;;;5036711;28;20087;-70
2023/07/20 03:30:39;;;;;;;34.42;21.40;;;;;;;;;;5031587;28;20054;-71
2023/07/20 03:33:05;;;;;;;29.98;19.27;;;;;;;;;;5045076;28;20033;-70
2023/07/20 03:35:31;;;;;;;35.45;20.65;;;;;;;;;;5044108;28;20064;-70
2023/07/20 03:37:57;;;;;;;37.10;21.52;;;;;;;;;;5043647;28;20112;-70
2023/07/20 03:40:24;;;;;;;36.95;19.83;;;;;;;;;;5048694;28;20028;-70
2023/07/20 03:42:51;;;;;;;43.55;23.02;;;;;;;;;;5044631;28;20029;-70
2023/07/20 03:45:18;;;;;;;44.55;22.90;;;;;;;;;;5041682;28;20060;-70
2023/07/20 03:47:44;;;;;;;51.80;24.52;;;;;;;;;;5042908;28;20054;-70
2023/07/20 03:50:11;;;;;;;47.65;23.13;;;;;;;;;;5050302;28;20128;-70
2023/07/20 03:52:37;;;;;;;46.55;24.80;;;;;;;;;;5047062;28;20482;-70
2023/07/20 03:55:03;;;;;;;48.67;24.48;;;;;;;;;;5043530;28;20056;-70
2023/07/20 03:57:32;;;;;;;55.53;25.92;;;;;;;;;;5046675;28;20074;-70
2023/07/20 03:59:58;;;;;;;50.40;25.98;;;;;;;;;;5046566;28;20033;-71
2023/07/20 04:02:25;;;;;;;47.20;25.10;;;;;;;;;;5050837;28;20383;-70
2023/07/20 04:04:51;;;;;;;54.22;26.63;;;;;;;;;;5045218;28;20036;-70
2023/07/20 04:07:17;;;;;;;50.13;26.33;;;;;;;;;;5044937;28;20029;-70
2023/07/20 04:09:44;;;;;;;52.33;26.60;;;;;;;;;;5045337;28;20025;-71
2023/07/20 04:12:10;;;;;;;53.80;26.23;;;;;;;;;;5048733;28;20033;-70
2023/07/20 04:14:36;;;;;;;51.85;25.27;;;;;;;;;;5063714;28;20238;-69
2023/07/20 04:17:03;;;;;;;59.78;27.23;;;;;;;;;;5027450;28;20045;-71
2023/07/20 04:19:29;;;;;;;58.53;29.63;;;;;;;;;;5038808;28;20048;-70
2023/07/20 04:21:56;;;;;;;60.67;30.70;;;;;;;;;;5042529;28;20042;-69
2023/07/20 04:24:22;;;;;;;62.90;30.73;;;;;;;;;;5044284;28;20073;-70
2023/07/20 04:26:48;;;;;;;52.75;26.75;;;;;;;;;;5052457;28;20079;-69
2023/07/20 04:29:14;;;;;;;53.00;28.13;;;;;;;;;;5042902;28;20045;-70
2023/07/20 04:31:43;;;;;;;53.80;26.80;;;;;;;;;;5038511;28;20025;-69
2023/07/20 04:34:09;;;;;;;54.42;27.27;;;;;;;;;;5062708;28;20029;-72
2023/07/20 04:36:36;;;;;;;56.97;28.45;;;;;;;;;;5045685;28;20064;-69
2023/07/20 04:39:04;;;;;;;45.55;27.00;;;;;;;;;;5058657;28;20041;-69
2023/07/20 04:41:36;;;;;;;32.95;22.73;;;;;;;;;;5049923;28;20059;-70
2023/07/20 04:44:02;;;;;;;25.23;18.17;;;;;;;;;;5045466;28;20029;-70
2023/07/20 04:46:30;;;;;;;25.60;15.80;;;;;;;;;;5024111;28;20029;-71
2023/07/20 04:48:58;;;;;;;16.67;13.55;;;;;;;;;;5042624;28;20037;-71
2023/07/20 04:51:26;;;;;;;17.73;11.55;;;;;;;;;;5046966;28;20036;-68
2023/07/20 04:53:54;;;;;;;15.70;10.32;;;;;;;;;;5046792;28;20028;-69
2023/07/20 04:56:23;;;;;;;10.20;8.25;;;;;;;;;;5045871;28;20028;-70
2023/07/20 04:58:50;;;;;;;10.82;7.60;;;;;;;;;;5053304;28;20033;-69
2023/07/20 05:01:16;;;;;;;12.10;7.70;;;;;;;;;;5042559;28;20528;-69
2023/07/20 05:03:43;;;;;;;9.35;6.20;;;;;;;;;;5047636;28;20406;-69
2023/07/20 05:06:10;;;;;;;12.27;6.38;;;;;;;;;;5060125;28;20036;-69
2023/07/20 05:08:36;;;;;;;8.13;5.53;;;;;;;;;;5050757;28;20060;-70
2023/07/20 05:11:02;;;;;;;7.55;5.32;;;;;;;;;;5056470;28;20033;-70
2023/07/20 05:13:28;;;;;;;7.65;5.18;;;;;;;;;;5043320;28;20039;-71
2023/07/20 05:15:54;;;;;;;7.43;4.72;;;;;;;;;;5040324;28;20029;-69
2023/07/20 05:18:21;;;;;;;6.70;4.40;;;;;;;;;;5043330;28;20021;-69
2023/07/20 05:20:49;;;;;;;6.28;3.78;;;;;;;;;;5044389;28;20060;-70
2023/07/20 05:23:17;;;;;;;4.95;3.95;;;;;;;;;;5048348;28;20028;-70
2023/07/20 05:25:43;;;;;;;7.57;4.35;;;;;;;;;;5051032;28;20512;-70
2023/07/20 05:28:10;;;;;;;4.75;3.60;;;;;;;;;;5061681;28;20051;-70
2023/07/20 05:30:36;;;;;;;5.18;2.70;;;;;;;;;;5045991;28;20048;-70
2023/07/20 05:33:02;;;;;;;3.58;2.58;;;;;;;;;;5046169;28;20456;-70
2023/07/20 05:35:28;;;;;;;6.07;2.67;;;;;;;;;;5046094;28;20041;-70
2023/07/20 05:37:54;;;;;;;4.15;1.98;;;;;;;;;;5045127;28;20108;-70
2023/07/20 05:40:21;;;;;;;4.75;1.55;;;;;;;;;;5049386;28;20044;-70
2023/07/20 05:42:48;;;;;;;3.80;1.98;;;;;;;;;;5043945;28;20036;-70
2023/07/20 05:45:14;;;;;;;5.07;1.30;;;;;;;;;;5056552;28;20081;-70
2023/07/20 05:47:42;;;;;;;3.33;1.20;;;;;;;;;;5044584;28;20036;-70
2023/07/20 05:50:08;;;;;;;4.53;1.27;;;;;;;;;;5045516;28;20048;-70
2023/07/20 05:52:36;;;;;;;5.78;1.50;;;;;;;;;;5043359;28;20125;-70
2023/07/20 05:55:03;;;;;;;3.53;1.00;;;;;;;;;;5044723;28;20078;-70
2023/07/20 05:57:29;;;;;;;4.13;1.20;;;;;;;;;;5044033;28;20222;-70
2023/07/20 05:59:55;;;;;;;2.97;0.93;;;;;;;;;;5049426;28;20045;-70
2023/07/20 06:02:21;;;;;;;3.00;1.05;;;;;;;;;;5046147;28;20029;-71
2023/07/20 06:04:47;;;;;;;3.00;1.10;;;;;;;;;;5046983;28;20062;-70
2023/07/20 06:07:13;;;;;;;5.70;1.00;;;;;;;;;;5043729;28;20020;-69
2023/07/20 06:09:40;;;;;;;4.60;1.20;;;;;;;;;;5048381;28;20437;-70
2023/07/20 06:12:06;;;;;;;3.22;1.05;;;;;;;;;;5048803;28;20040;-70
2023/07/20 06:14:32;;;;;;;3.88;1.10;;;;;;;;;;5041612;28;20026;-68
2023/07/20 06:16:58;;;;;;;7.25;1.23;;;;;;;;;;5042039;28;20116;-69
2023/07/20 06:19:25;;;;;;;5.45;1.15;;;;;;;;;;5043340;28;20048;-71
2023/07/20 06:21:51;;;;;;;2.45;0.95;;;;;;;;;;5038624;28;20150;-68
2023/07/20 06:24:17;;;;;;;4.25;1.20;;;;;;;;;;5035771;28;20033;-70
2023/07/20 06:26:44;;;;;;;4.68;0.90;;;;;;;;;;5038473;28;20033;-70
2023/07/20 06:29:10;;;;;;;3.75;0.90;;;;;;;;;;5038900;28;20061;-70
2023/07/20 06:31:36;;;;;;;2.92;1.10;;;;;;;;;;5035328;28;20030;-70
2023/07/20 06:34:03;;;;;;;2.90;1.05;;;;;;;;;;5039933;28;20068;-70
2023/07/20 06:36:29;;;;;;;3.83;0.98;;;;;;;;;;5037138;28;20049;-70
2023/07/20 06:38:56;;;;;;;3.35;0.82;;;;;;;;;;5036905;28;20447;-70
2023/07/20 06:41:22;;;;;;;3.22;1.05;;;;;;;;;;5039381;28;20116;-70
2023/07/20 06:43:48;;;;;;;10.25;1.02;;;;;;;;;;5038152;28;20440;-70
2023/07/20 06:46:14;;;;;;;2.08;0.88;;;;;;;;;;5036414;28;20056;-71
2023/07/20 06:48:40;;;;;;;3.28;0.68;;;;;;;;;;5033750;28;20043;-70
2023/07/20 06:51:07;;;;;;;3.05;1.13;;;;;;;;;;5038410;28;20029;-71
2023/07/20 06:53:33;;;;;;;3.00;1.08;;;;;;;;;;5040453;28;20207;-72
2023/07/20 06:55:59;;;;;;;5.18;1.00;;;;;;;;;;5036090;28;20099;-71
2023/07/20 06:58:25;;;;;;;2.63;0.70;;;;;;;;;;5041776;28;20486;-70
2023/07/20 07:00:52;;;;;;;5.35;0.85;;;;;;;;;;5045691;28;20033;-70
2023/07/20 07:03:18;;;;;;;3.00;0.80;;;;;;;;;;5039097;28;20032;-70
2023/07/20 07:05:45;;;;;;;4.97;0.80;;;;;;;;;;5040301;28;20083;-70
2023/07/20 07:08:12;;;;;;;2.92;0.60;;;;;;;;;;5035197;28;20112;-71
2023/07/20 07:10:38;;;;;;;2.00;0.75;;;;;;;;;;5042159;28;20154;-70
2023/07/20 07:13:05;;;;;;;2.55;0.65;;;;;;;;;;5043682;28;20043;-70
2023/07/20 07:15:32;;;;;;;1.95;0.60;;;;;;;;;;5037171;28;20037;-70
2023/07/20 07:17:59;;;;;;;1.23;0.57;;;;;;;;;;5044067;28;20033;-69
2023/07/20 07:20:26;;;;;;;1.80;1.00;;;;;;;;;;5038025;28;20399;-70
2023/07/20 07:22:52;;;;;;;1.83;0.73;;;;;;;;;;5042151;28;20059;-69
2023/07/20 07:25:19;;;;;;;1.23;0.60;;;;;;;;;;5043515;28;20482;-69
2023/07/20 07:27:45;;;;;;;1.65;0.70;;;;;;;;;;5040030;28;20598;-70
2023/07/20 07:30:12;;;;;;;4.22;0.60;;;;;;;;;;5055998;28;20394;-69
2023/07/20 07:32:38;;;;;;;1.50;0.55;;;;;;;;;;5038454;28;20033;-69
2023/07/20 07:35:05;;;;;;;2.05;0.60;;;;;;;;;;5040721;28;20060;-69
2023/07/20 07:37:32;;;;;;;1.98;0.50;;;;;;;;;;5041220;28;20052;-70
2023/07/20 07:39:58;;;;;;;1.27;0.50;;;;;;;;;;5040823;28;20533;-70
2023/07/20 07:42:24;;;;;;;3.38;0.70;;;;;;;;;;5053733;28;20040;-69
2023/07/20 07:44:50;;;;;;;2.30;0.70;;;;;;;;;;5042746;28;20055;-69
2023/07/20 07:47:16;;;;;;;1.75;0.70;;;;;;;;;;5036933;28;20041;-69
2023/07/20 07:49:43;;;;;;;0.75;0.50;;;;;;;;;;5059372;28;20051;-70
2023/07/20 07:52:09;;;;;;;1.17;0.68;;;;;;;;;;5053324;28;20040;-70
2023/07/20 07:54:35;;;;;;;4.25;0.90;;;;;;;;;;5043524;28;20037;-70
2023/07/20 07:57:01;;;;;;;3.35;0.52;;;;;;;;;;5039364;28;20102;-68
2023/07/20 07:59:28;;;;;;;1.67;0.50;;;;;;;;;;5040470;28;20021;-69
2023/07/20 08:01:54;;;;;;;1.27;0.52;;;;;;;;;;5034735;28;20033;-68
2023/07/20 08:04:20;;;;;;;1.98;0.90;;;;;;;;;;5042233;28;20025;-69
2023/07/20 08:06:46;;;;;;;1.50;0.65;;;;;;;;;;5040285;28;20029;-70
2023/07/20 08:09:12;;;;;;;1.33;0.73;;;;;;;;;;5035700;28;20563;-69
2023/07/20 08:11:39;;;;;;;2.28;0.60;;;;;;;;;;5037678;28;20055;-69
2023/07/20 08:14:06;;;;;;;3.03;0.65;;;;;;;;;;5036652;28;20037;-69
2023/07/20 08:16:32;;;;;;;4.55;0.98;;;;;;;;;;5049650;28;20261;-68
2023/07/20 08:18:58;;;;;;;2.85;0.60;;;;;;;;;;5051556;28;20032;-69
2023/07/20 08:21:24;;;;;;;2.10;0.80;;;;;;;;;;5037364;28;20132;-69
2023/07/20 08:23:50;;;;;;;1.98;0.70;;;;;;;;;;5031624;28;20120;-69
2023/07/20 08:26:16;;;;;;;2.55;0.73;;;;;;;;;;5031688;28;20068;-69
2023/07/20 08:28:43;;;;;;;3.55;0.80;;;;;;;;;;5034613;28;20542;-68
2023/07/20 08:31:09;;;;;;;4.82;0.77;;;;;;;;;;5048515;28;20397;-69
2023/07/20 08:33:35;;;;;;;4.50;0.70;;;;;;;;;;5050484;28;20104;-69
2023/07/20 08:36:03;;;;;;;1.08;0.57;;;;;;;;;;5051544;28;20123;-70
2023/07/20 08:38:29;;;;;;;2.60;1.00;;;;;;;;;;5050800;28;20414;-69
2023/07/20 08:40:55;;;;;;;4.72;0.60;;;;;;;;;;5032498;28;20026;-69
2023/07/20 08:43:24;;;;;;;1.50;0.60;;;;;;;;;;5031605;28;20224;-69
2023/07/20 08:45:51;;;;;;;1.00;0.60;;;;;;;;;;5031996;28;20037;-70
2023/07/20 08:48:18;;;;;;;4.68;0.73;;;;;;;;;;5031897;28;20037;-69
2023/07/20 08:50:44;;;;;;;1.17;0.50;;;;;;;;;;5038026;28;20116;-69
2023/07/20 08:53:11;;;;;;;1.73;0.63;;;;;;;;;;5031344;28;20037;-69
2023/07/20 08:55:37;;;;;;;1.13;0.40;;;;;;;;;;5030172;28;20033;-69
2023/07/20 08:58:03;;;;;;;2.80;0.60;;;;;;;;;;5032110;28;20059;-69
2023/07/20 09:00:29;;;;;;;0.65;0.40;;;;;;;;;;5046911;28;20065;-69
2023/07/20 09:02:56;;;;;;;0.82;0.50;;;;;;;;;;5050782;28;20021;-70
2023/07/20 09:05:23;;;;;;;1.05;0.50;;;;;;;;;;5050765;28;20082;-68
2023/07/20 09:07:50;;;;;;;2.05;0.60;;;;;;;;;;5050560;28;20029;-69
2023/07/20 09:10:16;;;;;;;2.63;0.80;;;;;;;;;;5043943;28;20039;-69
2023/07/20 09:12:43;;;;;;;1.00;0.60;;;;;;;;;;5050565;28;20347;-70
2023/07/20 09:15:10;;;;;;;1.20;0.68;;;;;;;;;;5050168;28;20090;-69
2023/07/20 09:17:37;;;;;;;1.52;0.65;;;;;;;;;;5065992;28;20032;-69
2023/07/20 09:20:07;;;;;;;1.77;0.70;;;;;;;;;;5048918;28;20029;-70
2023/07/20 09:22:34;;;;;;;3.97;0.70;;;;;;;;;;5050157;28;20481;-70
2023/07/20 09:25:00;;;;;;;5.43;0.80;;;;;;;;;;5033000;28;20033;-73
2023/07/20 09:27:37;;;;;;;2.05;0.75;;;;;;;;;;5030813;28;20063;-70
2023/07/20 09:30:04;;;;;;;1.45;0.77;;;;;;;;;;5043987;28;20095;-70
2023/07/20 09:32:30;;;;;;;0.80;0.55;;;;;;;;;;5050341;28;20089;-68
2023/07/20 09:34:56;;;;;;;0.85;0.47;;;;;;;;;;5050088;28;20021;-68
2023/07/20 09:37:23;;;;;;;1.70;0.60;;;;;;;;;;5049437;28;20055;-69
2023/07/20 09:39:51;;;;;;;1.60;0.70;;;;;;;;;;5033677;28;20179;-70
2023/07/20 09:42:18;;;;;;;2.05;0.50;;;;;;;;;;5030574;28;20029;-70
2023/07/20 09:44:44;;;;;;;1.10;0.50;;;;;;;;;;5030759;28;20034;-69
2023/07/20 09:47:11;;;;;;;2.15;0.52;;;;;;;;;;5030786;28;20037;-69
2023/07/20 09:49:43;;;;;;;1.63;0.60;;;;;;;;;;5039602;28;20126;-70
2023/07/20 09:52:10;;;;;;;1.85;0.60;;;;;;;;;;5046177;28;20103;-70
2023/07/20 09:54:39;;;;;;;1.67;0.80;;;;;;;;;;5030458;28;20044;-70
2023/07/20 09:57:08;;;;;;;3.58;0.93;;;;;;;;;;5030375;28;20041;-70
2023/07/20 09:59:35;;;;;;;3.97;0.82;;;;;;;;;;5039255;28;20098;-70
2023/07/20 10:02:06;;;;;;;2.97;0.90;;;;;;;;;;5065513;28;20527;-70
2023/07/20 10:04:32;;;;;;;;;;;;;;;;;;5050733;28;20083;-70
2023/07/20 10:06:59;;;;;;;2.58;1.48;;;;;;;;;;5048644;28;20373;-70
2023/07/20 10:09:26;;;;;;;1.05;0.80;;;;;;;;;;5044829;28;20053;-69
2023/07/20 10:11:52;;;;;;;1.85;0.73;;;;;;;;;;5050140;28;20040;-69
2023/07/20 10:14:20;;;;;;;1.35;0.70;;;;;;;;;;5049652;28;20513;-69
2023/07/20 10:16:55;;;;;;;1.55;0.80;;;;;;;;;;5049721;28;20032;-69
2023/07/20 10:19:39;;;;;;;2.33;0.90;;;;;;;;;;5048695;28;20024;-69
2023/07/20 10:22:12;;;;;;;2.22;0.70;;;;;;;;;;5038130;28;20462;-70
2023/07/20 10:24:39;;;;;;;2.90;0.90;;;;;;;;;;5031874;28;20021;-70
2023/07/20 10:27:05;;;;;;;1.50;0.88;;;;;;;;;;5060564;28;20548;-70
2023/07/20 10:29:32;;;;;;;1.02;0.82;;;;;;;;;;5050324;28;20048;-70
2023/07/20 10:31:58;;;;;;;4.15;1.33;;;;;;;;;;5055181;28;20134;-70
2023/07/20 10:34:24;;;;;;;3.00;0.90;;;;;;;;;;5042429;28;20030;-69
2023/07/20 10:36:54;;;;;;;4.85;0.70;;;;;;;;;;5021873;28;20099;-68
2023/07/20 10:39:24;;;;;;;2.30;0.67;;;;;;;;;;5041657;28;20026;-70
2023/07/20 10:41:51;;;;;;;1.38;0.80;;;;;;;;;;5052360;28;20756;-69
2023/07/20 10:44:20;;;;;;;10.00;0.95;;;;;;;;;;5051655;28;20123;-69
2023/07/20 10:46:46;;;;;;;4.60;1.00;;;;;;;;;;5048972;28;20029;-70
2023/07/20 10:49:14;;;;;;;1.73;0.90;;;;;;;;;;5033559;28;20056;-70
2023/07/20 10:51:41;;;;;;;3.50;0.80;;;;;;;;;;5047264;28;20043;-69
2023/07/20 10:54:16;;;;;;;3.45;0.90;;;;;;;;;;5051990;28;20020;-69
2023/07/20 10:56:42;;;;;;;3.33;0.80;;;;;;;;;;5050555;28;20048;-68
2023/07/20 10:59:24;;;;;;;1.42;0.90;;;;;;;;;;5052261;28;20025;-69
2023/07/20 11:01:50;;;;;;;2.30;0.90;;;;;;;;;;5052436;28;20039;-68
2023/07/20 11:04:20;;;;;;;3.28;0.90;;;;;;;;;;5051178;28;20489;-69
2023/07/20 11:06:46;;;;;;;2.80;1.00;;;;;;;;;;5050887;28;20041;-69
2023/07/20 11:09:16;;;;;;;3.33;1.10;;;;;;;;;;5049052;28;20026;-69
2023/07/20 11:11:47;;;;;;;1.98;1.02;;;;;;;;;;5033470;28;20065;-69
2023/07/20 11:14:23;;;;;;;2.25;1.10;;;;;;;;;;5033011;28;20533;-69
2023/07/20 11:16:51;;;;;;;2.53;1.23;;;;;;;;;;5044459;28;20029;-69
2023/07/20 11:19:18;;;;;;;2.45;1.00;;;;;;;;;;5053244;28;20029;-69
2023/07/20 11:21:47;;;;;;;3.45;1.08;;;;;;;;;;5053463;28;20071;-69
2023/07/20 11:24:13;;;;;;;2.88;0.80;;;;;;;;;;5044543;28;20478;-69
2023/07/20 11:26:45;;;;;;;4.15;1.08;;;;;;;;;;5052550;28;20053;-70
2023/07/20 11:29:11;;;;;;;;;;;;;;;;;;5053289;28;20124;-69
2023/07/20 11:31:41;;;;;;;3.67;1.10;;;;;;;;;;5051472;28;19915;-69
2023/07/20 11:34:11;;;;;;;4.00;1.13;;;;;;;;;;5052757;28;20036;-70
2023/07/20 11:36:37;;;;;;;;;;;;;;;;;;5049674;28;20024;-70
2023/07/20 11:39:04;;;;;;;4.22;1.23;;;;;;;;;;5053408;28;20387;-69
2023/07/20 11:41:30;;;;;;;3.70;1.02;;;;;;;;;;5053608;28;20041;-70
2023/07/20 11:43:57;;;;;;;3.70;1.00;;;;;;;;;;5067312;28;20056;-70
2023/07/20 11:46:23;;;;;;;1.90;1.00;;;;;;;;;;5052757;28;20040;-70
2023/07/20 11:48:55;;;;;;;3.78;1.23;;;;;;;;;;5052647;28;20401;-69
2023/07/20 11:51:21;;;;;;;4.88;1.00;;;;;;;;;;5052245;28;20037;-69
2023/07/20 11:53:48;;;;;;;6.75;1.20;;;;;;;;;;5066896;28;20033;-69
2023/07/20 11:56:14;;;;;;;2.95;1.15;;;;;;;;;;5049836;28;20120;-69
2023/07/20 11:58:46;;;;;;;2.42;1.17;;;;;;;;;;5060384;28;20095;-68
2023/07/20 12:01:16;;;;;;;4.35;1.17;;;;;;;;;;5032189;28;20033;-70
2023/07/20 12:03:43;;;;;;;4.18;1.85;;;;;;;;;;5032328;28;20041;-68
2023/07/20 12:06:10;;;;;;;2.28;1.08;;;;;;;;;;5017993;28;20025;-71
2023/07/20 12:08:40;;;;;;;4.20;1.63;;;;;;;;;;5040444;28;20067;-69
2023/07/20 12:11:06;;;;;;;2.72;1.13;;;;;;;;;;5048383;28;20387;-68
2023/07/20 12:13:39;;;;;;;4.65;1.20;;;;;;;;;;5042815;28;20120;-69
2023/07/20 12:16:14;;;;;;;2.28;1.15;;;;;;;;;;5043936;28;20028;-71
2023/07/20 12:18:44;;;;;;;2.53;0.90;;;;;;;;;;5039629;28;20295;-69
2023/07/20 12:21:10;;;;;;;2.72;1.15;;;;;;;;;;5047522;28;20032;-69
2023/07/20 12:23:38;;;;;;;1.75;1.10;;;;;;;;;;5047484;28;20025;-69
2023/07/20 12:26:06;;;;;;;3.45;1.17;;;;;;;;;;5050044;28;20059;-68
2023/07/20 12:28:32;;;;;;;3.00;1.20;;;;;;;;;;5044980;28;20037;-69
2023/07/20 12:30:58;;;;;;;0.95;0.82;;;;;;;;;;5046915;28;20132;-69
2023/07/20 12:33:25;;;;;;;1.88;1.05;;;;;;;;;;5045772;28;20108;-69
2023/07/20 12:35:55;;;;;;;2.85;1.20;;;;;;;;;;5044516;28;20446;-68
2023/07/20 12:38:23;;;;;;;2.47;0.80;;;;;;;;;;5048182;28;20020;-69
2023/07/20 12:40:49;;;;;;;2.95;1.10;;;;;;;;;;5046867;28;20020;-68
2023/07/20 12:43:15;;;;;;;3.80;1.65;;;;;;;;;;5042106;28;20121;-68
2023/07/20 12:45:42;;;;;;;1.98;0.93;;;;;;;;;;5049289;28;20575;-69
2023/07/20 12:48:08;;;;;;;3.50;1.20;;;;;;;;;;5044446;28;20037;-70
2023/07/20 12:50:34;;;;;;;3.45;0.90;;;;;;;;;;5043702;28;20090;-68
2023/07/20 12:53:02;;;;;;;3.33;1.10;;;;;;;;;;5043531;28;20498;-69
2023/07/20 12:55:30;;;;;;;2.28;0.93;;;;;;;;;;5045165;28;20032;-68
2023/07/20 12:57:56;;;;;;;3.05;1.20;;;;;;;;;;5041620;28;20037;-69
2023/07/20 13:00:22;;;;;;;2.65;0.93;;;;;;;;;;5042384;28;20025;-68
2023/07/20 13:02:49;;;;;;;3.58;0.90;;;;;;;;;;5040960;28;20123;-70
2023/07/20 13:05:16;;;;;;;1.02;0.70;;;;;;;;;;5041102;28;20032;-68
2023/07/20 13:07:42;;;;;;;2.40;0.90;;;;;;;;;;5037658;28;20030;-68
2023/07/20 13:10:09;;;;;;;15.52;1.20;;;;;;;;;;5060016;28;20113;-69
2023/07/20 13:12:36;;;;;;;3.53;1.10;;;;;;;;;;5044368;28;20029;-68
2023/07/20 13:15:05;;;;;;;3.60;1.03;;;;;;;;;;5043238;28;20056;-68
2023/07/20 13:17:33;;;;;;;1.93;1.10;;;;;;;;;;5046847;28;20261;-69
2023/07/20 13:19:59;;;;;;;3.35;1.00;;;;;;;;;;5046766;28;20036;-68
2023/07/20 13:22:25;;;;;;;3.50;1.00;;;;;;;;;;5043057;28;20178;-69
2023/07/20 13:24:53;;;;;;;2.75;1.00;;;;;;;;;;5042161;28;20044;-69
2023/07/20 13:27:19;;;;;;;1.45;0.88;;;;;;;;;;5060508;28;20064;-69
2023/07/20 13:29:46;;;;;;;2.55;1.20;;;;;;;;;;5040358;28;20072;-69
2023/07/20 13:32:15;;;;;;;3.08;1.10;;;;;;;;;;5042978;28;20071;-69
2023/07/20 13:34:41;;;;;;;8.13;1.65;;;;;;;;;;5043970;28;20187;-69
2023/07/20 13:37:09;;;;;;;1.67;1.10;;;;;;;;;;5045967;28;20048;-70
2023/07/20 13:39:35;;;;;;;8.25;1.67;;;;;;;;;;5041938;28;20155;-70
2023/07/20 13:42:05;;;;;;;4.47;1.10;;;;;;;;;;5037443;28;20032;-69
2023/07/20 13:44:34;;;;;;;2.10;0.80;;;;;;;;;;5043066;28;20025;-70
2023/07/20 13:47:01;;;;;;;2.75;0.85;;;;;;;;;;5040729;28;20037;-70
2023/07/20 13:49:27;;;;;;;4.68;0.85;;;;;;;;;;5047519;28;20028;-69
2023/07/20 13:51:53;;;;;;;2.85;0.88;;;;;;;;;;5048127;28;20051;-69
2023/07/20 13:54:19;;;;;;;2.85;0.70;;;;;;;;;;5063720;28;20430;-68
2023/07/20 13:56:45;;;;;;;3.38;0.80;;;;;;;;;;5046851;28;20048;-68
2023/07/20 13:59:12;;;;;;;6.03;1.30;;;;;;;;;;5050417;28;20033;-69
2023/07/20 14:01:38;;;;;;;4.18;1.10;;;;;;;;;;5049160;28;20028;-69
2023/07/20 14:04:04;;;;;;;5.28;1.02;;;;;;;;;;5057235;28;20099;-68
2023/07/20 14:06:31;;;;;;;2.78;0.90;;;;;;;;;;5039286;28;20044;-69
2023/07/20 14:08:57;;;;;;;2.47;0.80;;;;;;;;;;5047054;28;20021;-69
2023/07/20 14:11:24;;;;;;;2.97;0.65;;;;;;;;;;5047585;28;20098;-69
2023/07/20 14:13:51;;;;;;;1.85;0.90;;;;;;;;;;5053654;28;20032;-69
2023/07/20 14:16:17;;;;;;;2.17;0.80;;;;;;;;;;5034882;28;20033;-68
2023/07/20 14:18:47;;;;;;;1.38;0.70;;;;;;;;;;5043185;28;20037;-69
2023/07/20 14:21:13;;;;;;;4.53;0.90;;;;;;;;;;5048762;28;20131;-69
2023/07/20 14:23:39;;;;;;;2.00;0.80;;;;;;;;;;5048002;28;20487;-68
2023/07/20 14:26:05;;;;;;;1.85;0.80;;;;;;;;;;5043809;28;20041;-70
2023/07/20 14:28:32;;;;;;;2.30;0.70;;;;;;;;;;5040638;28;20130;-68
2023/07/20 14:30:58;;;;;;;2.88;1.00;;;;;;;;;;5047512;28;20044;-70
2023/07/20 14:33:25;;;;;;;4.57;1.00;;;;;;;;;;5046979;28;20059;-69
2023/07/20 14:35:51;;;;;;;4.35;0.80;;;;;;;;;;5046481;28;20052;-68
2023/07/20 14:38:17;;;;;;;2.25;0.90;;;;;;;;;;5058839;28;20037;-68